Time;durP1;ratioP1;P1;durP2;ratioP2;P2;SDS_P1;SDS_P2;PMS_P1;PMS_P2;Temp;Humidity;BMP_temperature;BMP_pressure;BME280_temperature;BME280_humidity;BME280_pressure;Samples;Min_cycle;Max_cycle;Signal;HPM_P1;HPM_P2
2023/05/26 00:01:52;;;;;;;6.83;4.50;;;14.50;63.30;;;;;;934932;149;27415;-73
2023/05/26 00:04:18;;;;;;;7.13;4.90;;;14.50;63.30;;;;;;919595;152;27394;-73
2023/05/26 00:06:46;;;;;;;5.03;4.50;;;14.40;63.60;;;;;;913801;152;27288;-73
2023/05/26 00:09:12;;;;;;;4.73;4.23;;;14.40;63.60;;;;;;917797;152;27454;-74
2023/05/26 00:11:38;;;;;;;5.67;4.33;;;14.40;63.70;;;;;;925450;150;27379;-73
2023/05/26 00:14:05;;;;;;;5.17;4.60;;;14.30;63.90;;;;;;932035;151;27397;-73
2023/05/26 00:16:31;;;;;;;8.97;4.97;;;14.30;64.10;;;;;;951677;148;27351;-73
2023/05/26 00:18:58;;;;;;;6.27;4.23;;;14.20;65.00;;;;;;951886;147;27334;-73
2023/05/26 00:21:25;;;;;;;5.13;4.50;;;14.20;64.20;;;;;;951686;148;27319;-73
2023/05/26 00:23:51;;;;;;;7.80;4.63;;;14.20;64.40;;;;;;952727;148;27357;-73
2023/05/26 00:26:18;;;;;;;7.37;4.33;;;14.10;64.50;;;;;;951467;148;27371;-73
2023/05/26 00:28:44;;;;;;;5.60;5.10;;;14.10;64.70;;;;;;950922;147;27323;-73
2023/05/26 00:31:11;;;;;;;5.83;4.43;;;14.10;64.70;;;;;;951005;148;27347;-73
2023/05/26 00:33:37;;;;;;;5.53;4.43;;;14.00;64.80;;;;;;951898;148;27264;-73
2023/05/26 00:36:04;;;;;;;6.60;4.63;;;14.00;64.90;;;;;;951638;148;27361;-73
2023/05/26 00:38:31;;;;;;;7.70;4.30;;;13.90;65.20;;;;;;952356;148;27427;-73
2023/05/26 00:40:57;;;;;;;5.77;4.37;;;13.90;65.20;;;;;;934382;151;27408;-73
2023/05/26 00:43:24;;;;;;;4.73;4.33;;;13.80;65.20;;;;;;936308;150;27306;-73
2023/05/26 00:45:50;;;;;;;5.87;4.60;;;13.80;65.30;;;;;;952029;148;27375;-73
2023/05/26 00:48:17;;;;;;;5.63;4.20;;;13.70;65.50;;;;;;952139;147;27864;-73
2023/05/26 00:50:44;;;;;;;6.33;4.50;;;13.70;65.70;;;;;;933881;150;27297;-73
2023/05/26 00:53:11;;;;;;;6.50;4.87;;;13.70;66.00;;;;;;934425;150;27370;-73
2023/05/26 00:55:37;;;;;;;6.13;4.23;;;13.60;66.00;;;;;;931923;151;27350;-74
2023/05/26 00:58:03;;;;;;;5.17;4.07;;;13.60;66.10;;;;;;939701;149;27360;-73
2023/05/26 01:00:30;;;;;;;7.40;4.57;;;13.50;66.10;;;;;;946166;151;27362;-73
2023/05/26 01:02:57;;;;;;;5.03;4.20;;;13.50;66.20;;;;;;947852;148;27270;-73
2023/05/26 01:05:23;;;;;;;5.07;4.10;;;13.50;66.40;;;;;;947504;151;27329;-74
2023/05/26 01:07:50;;;;;;;4.73;4.33;;;13.40;66.40;;;;;;949154;148;27400;-73
2023/05/26 01:10:16;;;;;;;4.80;4.40;;;13.40;66.60;;;;;;947987;151;27484;-73
2023/05/26 01:12:54;;;;;;;5.03;4.53;;;13.40;66.80;;;;;;941243;149;27381;-73
2023/05/26 01:15:25;;;;;;;7.03;4.63;;;13.30;66.80;;;;;;931086;151;27425;-74
2023/05/26 01:18:03;;;;;;;6.93;4.40;;;13.30;66.80;;;;;;931021;149;27364;-73
2023/05/26 01:20:29;;;;;;;5.43;3.90;;;13.30;67.00;;;;;;935114;152;27332;-74
2023/05/26 01:23:01;;;;;;;4.70;4.17;;;13.20;67.00;;;;;;927393;152;27286;-73
2023/05/26 01:25:50;;;;;;;6.30;4.10;;;13.20;67.20;;;;;;932789;151;27341;-74
2023/05/26 01:28:22;;;;;;;5.20;4.40;;;13.20;67.00;;;;;;936020;150;27375;-73
2023/05/26 01:30:49;;;;;;;6.83;4.43;;;13.20;67.10;;;;;;936356;152;27377;-73
2023/05/26 01:33:15;;;;;;;8.47;4.70;;;13.10;67.20;;;;;;935414;152;27312;-73
2023/05/26 01:35:42;;;;;;;5.93;4.63;;;13.10;67.50;;;;;;935666;152;27432;-74
2023/05/26 01:38:08;;;;;;;4.57;4.17;;;13.10;67.70;;;;;;937446;150;27325;-73
2023/05/26 01:40:35;;;;;;;6.33;4.50;;;13.00;67.80;;;;;;937014;150;27458;-73
2023/05/26 01:43:02;;;;;;;6.83;4.67;;;13.00;68.00;;;;;;936577;151;27258;-73
2023/05/26 01:45:28;;;;;;;9.17;4.30;;;13.00;67.70;;;;;;936575;152;27384;-73
2023/05/26 01:47:55;;;;;;;7.23;5.20;;;13.00;67.90;;;;;;937221;149;27429;-73
2023/05/26 01:50:21;;;;;;;5.17;4.40;;;13.00;68.00;;;;;;935603;152;27423;-73
2023/05/26 01:52:48;;;;;;;7.53;5.33;;;12.90;68.30;;;;;;935570;152;27458;-73
2023/05/26 01:55:14;;;;;;;6.07;4.90;;;12.90;68.40;;;;;;936897;151;27377;-73
2023/05/26 01:57:41;;;;;;;5.37;4.67;;;12.90;68.40;;;;;;936936;149;27482;-73
2023/05/26 02:00:09;;;;;;;6.53;4.53;;;12.90;68.20;;;;;;936223;151;27406;-73
2023/05/26 02:02:34;;;;;;;5.40;4.60;;;12.80;68.40;;;;;;936613;150;27375;-74
2023/05/26 02:05:01;;;;;;;7.03;4.67;;;12.80;68.50;;;;;;914614;152;27387;-74
2023/05/26 02:07:29;;;;;;;5.83;4.60;;;12.80;68.50;;;;;;912552;153;27316;-74
2023/05/26 02:09:55;;;;;;;6.00;4.83;;;12.80;68.70;;;;;;934603;150;27345;-73
2023/05/26 02:12:21;;;;;;;6.23;4.97;;;12.70;68.90;;;;;;934685;149;27330;-73
2023/05/26 02:14:47;;;;;;;5.67;4.33;;;12.70;68.80;;;;;;911970;153;27502;-74
2023/05/26 02:17:17;;;;;;;7.73;4.47;;;12.70;69.20;;;;;;933747;149;27769;-73
2023/05/26 02:19:43;;;;;;;4.67;4.17;;;12.70;69.30;;;;;;911960;153;27510;-74
2023/05/26 02:22:12;;;;;;;5.00;4.53;;;12.60;69.20;;;;;;913092;153;27401;-74
2023/05/26 02:24:36;;;;;;;5.70;4.60;;;12.60;69.60;;;;;;926843;152;27377;-74
2023/05/26 02:27:03;;;;;;;5.67;4.73;;;12.60;69.50;;;;;;926440;152;27466;-74
2023/05/26 02:29:29;;;;;;;5.80;4.37;;;12.50;69.20;;;;;;927533;151;27343;-74
2023/05/26 02:31:56;;;;;;;5.40;4.00;;;12.50;69.50;;;;;;927049;152;27459;-74
2023/05/26 02:34:23;;;;;;;6.60;4.80;;;12.50;69.50;;;;;;926763;152;27413;-74
2023/05/26 02:36:49;;;;;;;7.13;4.80;;;12.50;69.40;;;;;;927096;152;27363;-75
2023/05/26 02:39:16;;;;;;;6.70;5.00;;;12.50;69.60;;;;;;911842;153;27467;-74
2023/05/26 02:41:42;;;;;;;7.03;4.63;;;12.40;69.60;;;;;;934708;149;27411;-75
2023/05/26 02:44:09;;;;;;;5.90;4.97;;;12.40;69.80;;;;;;923085;152;27356;-74
2023/05/26 02:46:35;;;;;;;6.93;4.97;;;12.40;70.20;;;;;;918088;152;27399;-74
2023/05/26 02:49:02;;;;;;;5.20;4.73;;;12.40;70.00;;;;;;919606;152;27458;-74
2023/05/26 02:51:29;;;;;;;7.63;5.20;;;12.40;70.30;;;;;;935008;149;27310;-75
2023/05/26 02:53:55;;;;;;;5.80;5.20;;;12.40;70.40;;;;;;922220;152;27358;-75
2023/05/26 02:56:22;;;;;;;5.70;5.00;;;12.30;70.50;;;;;;912821;153;27405;-75
2023/05/26 02:58:48;;;;;;;5.93;5.00;;;12.30;70.30;;;;;;935655;149;27342;-75
2023/05/26 03:01:16;;;;;;;6.63;4.30;;;12.30;70.60;;;;;;918600;152;27373;-75
2023/05/26 03:03:42;;;;;;;5.40;4.53;;;12.30;70.60;;;;;;919088;152;27482;-75
2023/05/26 03:06:08;;;;;;;6.10;4.63;;;12.20;70.60;;;;;;934720;149;27436;-75
2023/05/26 03:08:37;;;;;;;5.67;5.10;;;12.20;70.70;;;;;;912584;152;27383;-75
2023/05/26 03:11:01;;;;;;;5.73;4.57;;;12.20;71.00;;;;;;918124;152;27366;-75
2023/05/26 03:13:28;;;;;;;5.10;4.60;;;12.20;71.00;;;;;;912090;153;27385;-75
2023/05/26 03:15:54;;;;;;;5.57;4.77;;;12.20;71.10;;;;;;929983;151;27356;-75
2023/05/26 03:18:21;;;;;;;7.37;4.77;;;12.20;71.20;;;;;;929680;151;27423;-75
2023/05/26 03:20:48;;;;;;;6.37;4.70;;;12.10;71.70;;;;;;930076;151;27332;-76
2023/05/26 03:23:17;;;;;;;6.10;5.50;;;12.10;71.40;;;;;;930538;150;27388;-77
2023/05/26 03:25:44;;;;;;;5.83;5.10;;;12.10;72.30;;;;;;929967;151;27460;-77
2023/05/26 03:28:10;;;;;;;6.37;4.47;;;12.10;71.70;;;;;;913651;152;27486;-77
2023/05/26 03:30:37;;;;;;;6.00;4.70;;;12.00;71.80;;;;;;917618;152;27351;-77
2023/05/26 03:33:03;;;;;;;6.67;5.10;;;12.00;72.00;;;;;;911248;152;27405;-77
2023/05/26 03:35:31;;;;;;;6.67;5.03;;;12.00;72.00;;;;;;934222;149;27338;-77
2023/05/26 03:37:56;;;;;;;5.13;4.63;;;12.00;72.10;;;;;;918788;152;27383;-77
2023/05/26 03:40:23;;;;;;;6.10;5.17;;;11.90;72.20;;;;;;918564;152;27382;-77
2023/05/26 03:42:50;;;;;;;5.50;4.97;;;11.90;72.20;;;;;;911943;153;27384;-77
2023/05/26 03:45:16;;;;;;;5.60;4.90;;;11.90;72.50;;;;;;918115;153;27350;-77
2023/05/26 03:47:43;;;;;;;7.83;5.60;;;11.90;72.50;;;;;;933899;149;27434;-77
2023/05/26 03:50:09;;;;;;;6.20;5.07;;;11.90;72.50;;;;;;911466;152;27388;-77
2023/05/26 03:52:36;;;;;;;7.33;5.27;;;11.90;72.50;;;;;;934547;149;27325;-77
2023/05/26 03:55:04;;;;;;;8.07;5.63;;;11.90;72.40;;;;;;933468;149;27370;-77
2023/05/26 03:57:30;;;;;;;9.63;5.50;;;11.90;72.60;;;;;;934175;149;27322;-77
2023/05/26 03:59:56;;;;;;;5.27;4.70;;;11.90;72.80;;;;;;934887;149;27365;-77
2023/05/26 04:02:22;;;;;;;5.93;5.13;;;12.00;72.90;;;;;;918997;152;27508;-77
2023/05/26 04:04:49;;;;;;;7.47;5.53;;;12.00;73.10;;;;;;934792;149;27419;-77
2023/05/26 04:07:16;;;;;;;7.93;5.00;;;12.00;73.10;;;;;;919345;152;27479;-77
2023/05/26 04:09:42;;;;;;;6.23;4.83;;;12.00;72.30;;;;;;933911;150;27429;-77
2023/05/26 04:12:09;;;;;;;7.33;5.43;;;12.10;73.10;;;;;;917764;152;27388;-77
2023/05/26 04:14:35;;;;;;;8.07;4.97;;;12.10;73.20;;;;;;933390;149;27814;-77
2023/05/26 04:17:02;;;;;;;7.97;5.30;;;12.10;73.30;;;;;;917241;152;27394;-76
2023/05/26 04:19:28;;;;;;;5.63;5.03;;;12.20;73.30;;;;;;911651;152;27420;-77
2023/05/26 04:21:55;;;;;;;8.57;5.50;;;12.30;73.30;;;;;;918836;152;27387;-77
2023/05/26 04:24:22;;;;;;;6.93;5.00;;;12.30;73.50;;;;;;934206;149;27498;-77
2023/05/26 04:26:48;;;;;;;6.33;4.93;;;12.40;73.70;;;;;;910983;153;27432;-77
2023/05/26 04:29:15;;;;;;;7.33;4.67;;;12.40;73.70;;;;;;927153;151;27296;-77
2023/05/26 04:31:42;;;;;;;6.17;5.20;;;12.50;73.70;;;;;;927092;152;27480;-77
2023/05/26 04:34:08;;;;;;;6.67;5.10;;;12.60;73.90;;;;;;927044;152;27381;-77
2023/05/26 04:36:38;;;;;;;8.47;4.80;;;12.60;73.90;;;;;;927144;152;27323;-77
2023/05/26 04:39:01;;;;;;;6.10;5.23;;;12.70;73.90;;;;;;926207;152;27322;-77
2023/05/26 04:41:28;;;;;;;6.13;5.13;;;12.80;73.60;;;;;;927069;152;27448;-77
2023/05/26 04:43:54;;;;;;;5.77;4.80;;;12.90;73.70;;;;;;926872;152;27385;-77
2023/05/26 04:46:21;;;;;;;6.53;5.00;;;12.90;73.70;;;;;;926008;152;27370;-77
2023/05/26 04:48:47;;;;;;;5.03;4.53;;;13.00;73.60;;;;;;926773;151;27432;-76
2023/05/26 04:51:14;;;;;;;7.77;4.67;;;13.10;73.70;;;;;;926807;152;27474;-77
2023/05/26 04:53:41;;;;;;;6.57;5.03;;;13.20;73.90;;;;;;926512;152;27382;-77
2023/05/26 04:56:07;;;;;;;5.63;4.80;;;13.40;74.10;;;;;;918506;153;28067;-77
2023/05/26 04:58:36;;;;;;;8.17;4.47;;;13.50;74.70;;;;;;919106;152;27334;-77
2023/05/26 05:01:02;;;;;;;4.93;4.33;;;13.70;74.90;;;;;;911688;152;27399;-77
2023/05/26 05:03:28;;;;;;;5.15;4.55;;;14.00;75.40;;;;;;918989;152;27388;-77
2023/05/26 05:05:54;;;;;;;5.03;4.42;;;14.40;75.80;;;;;;911982;152;27391;-75
2023/05/26 05:08:20;;;;;;;6.70;4.17;;;14.80;76.40;;;;;;916953;152;27358;-75
2023/05/26 05:10:47;;;;;;;5.95;4.05;;;15.40;76.80;;;;;;934875;149;27354;-75
2023/05/26 05:13:13;;;;;;;4.83;3.80;;;16.00;76.90;;;;;;933911;149;27338;-75
2023/05/26 05:15:40;;;;;;;4.15;3.60;;;16.70;76.30;;;;;;941317;148;27415;-75
2023/05/26 05:18:07;;;;;;;5.30;3.62;;;17.40;75.70;;;;;;947080;148;27314;-75
2023/05/26 05:20:33;;;;;;;3.90;3.60;;;18.10;74.60;;;;;;947522;148;27416;-75
2023/05/26 05:23:00;;;;;;;4.85;3.45;;;18.80;73.50;;;;;;947212;149;27280;-75
2023/05/26 05:25:26;;;;;;;4.17;3.77;;;19.50;72.40;;;;;;947302;148;27457;-75
2023/05/26 05:27:53;;;;;;;4.87;3.27;;;20.10;71.10;;;;;;947843;148;27376;-75
2023/05/26 05:30:20;;;;;;;4.70;3.83;;;20.80;68.70;;;;;;947024;149;27315;-75
2023/05/26 05:32:47;;;;;;;5.25;3.55;;;21.40;67.90;;;;;;946647;149;27358;-75
2023/05/26 05:35:13;;;;;;;4.53;3.65;;;22.00;66.60;;;;;;946372;148;27440;-75
2023/05/26 05:37:39;;;;;;;3.45;3.10;;;22.60;65.20;;;;;;947373;148;27361;-76
2023/05/26 05:40:06;;;;;;;3.90;3.00;;;23.10;63.90;;;;;;945096;148;27329;-75
2023/05/26 05:42:32;;;;;;;4.05;2.80;;;23.50;62.70;;;;;;946146;151;27341;-76
2023/05/26 05:44:59;;;;;;;6.42;2.92;;;23.90;61.50;;;;;;945249;148;27320;-76
2023/05/26 05:47:26;;;;;;;3.17;2.90;;;24.40;60.50;;;;;;944365;151;27428;-76
2023/05/26 05:49:52;;;;;;;2.50;2.30;;;24.70;59.80;;;;;;946633;149;27471;-76
2023/05/26 05:52:19;;;;;;;6.37;3.30;;;25.10;59.30;;;;;;947662;149;27303;-75
2023/05/26 05:54:45;;;;;;;3.45;2.72;;;25.50;58.60;;;;;;946736;149;28243;-75
2023/05/26 05:57:12;;;;;;;4.47;3.40;;;26.00;57.90;;;;;;947738;149;27354;-76
2023/05/26 05:59:39;;;;;;;5.25;3.35;;;26.30;56.70;;;;;;946866;149;27365;-76
2023/05/26 06:02:05;;;;;;;3.60;3.00;;;26.60;56.00;;;;;;947089;149;27365;-76
2023/05/26 06:04:32;;;;;;;6.45;3.35;;;26.90;55.70;;;;;;927349;152;27349;-76
2023/05/26 06:06:58;;;;;;;3.65;2.98;;;27.20;54.40;;;;;;946573;151;27332;-76
2023/05/26 06:09:25;;;;;;;4.80;3.05;;;27.40;53.90;;;;;;946115;148;27482;-76
2023/05/26 06:11:52;;;;;;;4.50;3.00;;;27.60;53.60;;;;;;946282;150;27581;-76
2023/05/26 06:14:18;;;;;;;4.33;2.90;;;27.70;53.30;;;;;;945704;151;27757;-76
2023/05/26 06:16:45;;;;;;;4.08;3.17;;;27.90;52.80;;;;;;929855;151;27432;-76
2023/05/26 06:19:11;;;;;;;3.95;2.90;;;28.10;52.50;;;;;;924846;151;27454;-76
2023/05/26 06:21:38;;;;;;;2.70;2.37;;;28.30;52.40;;;;;;922783;153;27370;-76
2023/05/26 06:24:05;;;;;;;3.70;2.80;;;28.60;52.40;;;;;;922220;153;27506;-76
2023/05/26 06:26:31;;;;;;;4.12;2.65;;;28.90;52.00;;;;;;924283;153;27356;-76
2023/05/26 06:28:58;;;;;;;3.33;2.80;;;29.20;51.40;;;;;;922332;153;27381;-76
2023/05/26 06:31:25;;;;;;;5.20;3.00;;;29.60;51.00;;;;;;920338;153;28040;-76
2023/05/26 06:33:51;;;;;;;3.58;2.70;;;29.90;50.50;;;;;;922242;153;27424;-76
2023/05/26 06:36:17;;;;;;;2.98;2.42;;;30.20;50.10;;;;;;923776;153;27427;-76
2023/05/26 06:38:44;;;;;;;4.45;2.95;;;30.40;49.00;;;;;;923531;153;27429;-76
2023/05/26 06:41:11;;;;;;;3.72;2.70;;;30.70;48.50;;;;;;921748;153;27416;-76
2023/05/26 06:43:37;;;;;;;4.20;3.40;;;30.80;48.00;;;;;;922153;153;27388;-76
2023/05/26 06:46:04;;;;;;;3.80;2.77;;;31.00;47.70;;;;;;921943;153;27476;-76
2023/05/26 06:48:30;;;;;;;3.58;2.75;;;31.10;47.50;;;;;;922377;153;27334;-76
2023/05/26 06:50:57;;;;;;;5.22;2.75;;;31.20;47.10;;;;;;922533;153;27517;-76
2023/05/26 06:53:24;;;;;;;4.10;2.77;;;31.30;46.60;;;;;;923033;153;27421;-76
2023/05/26 06:55:50;;;;;;;3.45;2.72;;;31.40;46.30;;;;;;922477;153;27331;-76
2023/05/26 06:58:17;;;;;;;3.75;2.60;;;31.50;46.20;;;;;;922951;153;27370;-76
2023/05/26 07:00:59;;;;;;;4.78;2.80;;;31.70;46.10;;;;;;923732;153;27494;-76
2023/05/26 07:03:28;;;;;;;4.15;3.22;;;31.80;45.80;;;;;;921891;153;27559;-76
2023/05/26 07:05:55;;;;;;;3.67;2.80;;;32.00;45.80;;;;;;923402;153;27449;-76
2023/05/26 07:08:21;;;;;;;5.67;3.08;;;32.10;45.50;;;;;;921755;153;27525;-77
2023/05/26 07:10:48;;;;;;;4.65;2.40;;;32.30;45.10;;;;;;921204;151;26302;-76
2023/05/26 07:13:14;;;;;;;4.28;2.92;;;32.50;44.90;;;;;;921385;153;27395;-76
2023/05/26 07:15:41;;;;;;;4.87;2.95;;;32.70;44.40;;;;;;921686;153;26400;-76
2023/05/26 07:18:08;;;;;;;4.05;2.90;;;32.90;44.00;;;;;;919092;152;28123;-76
2023/05/26 07:20:34;;;;;;;4.37;3.10;;;33.00;43.60;;;;;;920026;152;27484;-76
2023/05/26 07:23:01;;;;;;;4.20;2.90;;;33.20;43.70;;;;;;919464;153;26271;-76
2023/05/26 07:25:27;;;;;;;3.17;2.58;;;33.30;43.30;;;;;;920671;152;27428;-76
2023/05/26 07:27:54;;;;;;;2.80;2.37;;;33.50;43.20;;;;;;921286;153;26295;-76
2023/05/26 07:30:21;;;;;;;5.53;3.02;;;33.70;43.00;;;;;;922100;152;27380;-76
2023/05/26 07:32:47;;;;;;;5.47;2.87;;;33.80;42.70;;;;;;918178;153;26212;-76
2023/05/26 07:35:14;;;;;;;4.42;2.62;;;34.00;42.60;;;;;;919809;153;26414;-76
2023/05/26 07:37:40;;;;;;;4.40;2.75;;;34.10;41.70;;;;;;919688;152;26411;-76
2023/05/26 07:40:07;;;;;;;3.70;2.45;;;34.20;41.20;;;;;;919758;153;26321;-76
2023/05/26 07:42:34;;;;;;;7.20;3.05;;;34.30;41.50;;;;;;918299;153;26294;-77
2023/05/26 07:45:00;;;;;;;3.83;2.80;;;34.40;41.70;;;;;;919084;153;26310;-77
2023/05/26 07:47:31;;;;;;;4.58;2.67;;;34.70;41.50;;;;;;918696;153;26416;-77
2023/05/26 07:49:54;;;;;;;3.60;2.50;;;34.90;41.20;;;;;;918245;152;26293;-77
2023/05/26 07:52:20;;;;;;;5.17;3.20;;;35.20;40.70;;;;;;920014;152;26419;-77
2023/05/26 07:54:47;;;;;;;5.08;2.75;;;35.40;40.60;;;;;;919424;152;26282;-77
2023/05/26 07:57:13;;;;;;;4.08;2.52;;;35.70;40.30;;;;;;919604;152;26333;-77
2023/05/26 07:59:40;;;;;;;5.37;3.00;;;36.00;40.10;;;;;;920422;152;26307;-77
2023/05/26 08:02:06;;;;;;;5.22;3.17;;;36.40;39.90;;;;;;920522;153;27414;-77
2023/05/26 08:04:33;;;;;;;6.65;3.05;;;36.70;39.50;;;;;;919157;153;26282;-77
2023/05/26 08:07:00;;;;;;;5.40;3.02;;;37.10;39.00;;;;;;919385;153;26405;-77
2023/05/26 08:09:26;;;;;;;5.15;2.92;;;37.40;38.50;;;;;;920878;152;26364;-77
2023/05/26 08:11:53;;;;;;;4.35;2.45;;;37.70;38.10;;;;;;918387;152;26357;-77
2023/05/26 08:14:20;;;;;;;4.87;2.75;;;38.00;37.70;;;;;;920520;152;26307;-77
2023/05/26 08:16:46;;;;;;;4.78;2.80;;;38.20;37.50;;;;;;921038;153;26286;-77
2023/05/26 08:19:13;;;;;;;4.87;3.15;;;38.40;36.70;;;;;;933617;150;26395;-77
2023/05/26 08:21:39;;;;;;;5.60;3.30;;;38.50;36.50;;;;;;933229;153;26339;-77
2023/05/26 08:24:06;;;;;;;6.12;3.15;;;38.70;36.00;;;;;;932860;153;26272;-77
2023/05/26 08:26:32;;;;;;;4.00;3.00;;;38.80;35.80;;;;;;933641;153;26245;-77
2023/05/26 08:28:59;;;;;;;4.42;3.12;;;38.90;35.30;;;;;;933518;151;26299;-78
2023/05/26 08:31:26;;;;;;;7.10;3.20;;;38.90;34.70;;;;;;933360;153;26292;-77
2023/05/26 08:33:54;;;;;;;7.97;3.15;;;39.00;34.80;;;;;;933114;153;26264;-77
2023/05/26 08:36:19;;;;;;;4.53;3.08;;;39.10;34.50;;;;;;932716;153;26278;-77
2023/05/26 08:38:45;;;;;;;6.15;3.02;;;39.20;34.20;;;;;;933397;151;26341;-78
2023/05/26 08:41:12;;;;;;;3.90;2.75;;;39.30;34.00;;;;;;933747;150;26421;-77
2023/05/26 08:43:54;;;;;;;6.60;3.15;;;39.30;33.70;;;;;;932660;150;26324;-77
2023/05/26 08:46:20;;;;;;;5.08;2.65;;;39.30;33.50;;;;;;932678;153;26382;-78
2023/05/26 08:48:47;;;;;;;4.42;2.60;;;39.50;33.20;;;;;;932671;153;26229;-78
2023/05/26 08:51:13;;;;;;;4.28;2.80;;;39.50;32.60;;;;;;933503;151;26381;-78
2023/05/26 08:53:40;;;;;;;3.42;2.65;;;39.40;32.10;;;;;;933348;153;26287;-78
2023/05/26 08:56:07;;;;;;;4.55;2.87;;;39.30;32.10;;;;;;932812;153;26264;-78
2023/05/26 08:58:33;;;;;;;3.83;2.70;;;39.10;32.00;;;;;;934423;150;26338;-78
2023/05/26 09:01:00;;;;;;;5.80;3.08;;;39.00;32.20;;;;;;933764;150;26374;-78
2023/05/26 09:03:26;;;;;;;5.28;2.45;;;38.90;32.30;;;;;;933496;150;26301;-78
2023/05/26 09:05:53;;;;;;;4.10;2.65;;;38.90;32.30;;;;;;933670;150;26262;-79
2023/05/26 09:08:20;;;;;;;4.30;2.87;;;38.90;32.30;;;;;;933535;150;26805;-79
2023/05/26 09:10:46;;;;;;;3.83;2.70;;;38.90;31.90;;;;;;932939;151;26268;-79
2023/05/26 09:13:18;;;;;;;4.87;3.08;;;38.90;31.90;;;;;;933227;153;26446;-79
2023/05/26 09:15:42;;;;;;;5.30;2.95;;;39.00;32.10;;;;;;932783;153;26240;-79
2023/05/26 09:18:12;;;;;;;3.40;2.52;;;39.20;31.70;;;;;;931873;150;26311;-79
2023/05/26 09:20:44;;;;;;;5.87;3.02;;;39.30;31.90;;;;;;931204;151;26242;-79
2023/05/26 09:23:11;;;;;;;4.03;2.87;;;39.40;31.30;;;;;;916308;152;27841;-79
2023/05/26 09:25:37;;;;;;;5.03;2.98;;;39.50;31.00;;;;;;914877;155;26328;-79
2023/05/26 09:28:04;;;;;;;5.50;3.33;;;39.60;30.60;;;;;;921736;153;26241;-79
2023/05/26 09:30:37;;;;;;;6.95;3.30;;;39.60;30.30;;;;;;914167;155;26226;-79
2023/05/26 09:33:03;;;;;;;4.37;3.08;;;39.50;30.30;;;;;;934688;150;26246;-79
2023/05/26 09:35:36;;;;;;;3.35;2.47;;;39.40;30.40;;;;;;924040;152;26274;-79
2023/05/26 09:38:02;;;;;;;3.27;2.50;;;39.30;30.30;;;;;;920788;152;26246;-79
2023/05/26 09:40:29;;;;;;;4.60;3.22;;;39.10;30.50;;;;;;923218;152;27650;-79
2023/05/26 09:42:56;;;;;;;4.83;3.08;;;39.10;30.60;;;;;;921496;153;26581;-75
2023/05/26 09:45:23;;;;;;;5.15;2.98;;;39.00;30.10;;;;;;917611;155;26417;-75
2023/05/26 09:47:55;;;;;;;3.50;2.47;;;38.90;30.00;;;;;;938583;151;26198;-75
2023/05/26 09:50:21;;;;;;;3.90;3.15;;;38.80;30.00;;;;;;937834;151;26315;-75
2023/05/26 09:52:48;;;;;;;4.62;3.27;;;38.60;29.90;;;;;;939246;152;26252;-75
2023/05/26 09:55:14;;;;;;;4.78;2.83;;;38.30;30.50;;;;;;938507;152;26626;-75
2023/05/26 09:57:41;;;;;;;4.97;2.75;;;38.10;30.00;;;;;;939068;152;27412;-75
2023/05/26 10:00:09;;;;;;;6.75;2.90;;;37.80;29.90;;;;;;938575;151;26210;-75
2023/05/26 10:02:34;;;;;;;3.27;2.98;;;37.40;29.80;;;;;;913608;155;26379;-75
2023/05/26 10:05:01;;;;;;;3.55;2.50;;;37.00;29.20;;;;;;931569;151;26237;-75
2023/05/26 10:07:27;;;;;;;3.02;2.70;;;36.50;30.00;;;;;;925275;154;26285;-75
2023/05/26 10:10:00;;;;;;;3.92;2.92;;;36.10;30.00;;;;;;925262;149;26293;-75
2023/05/26 10:12:26;;;;;;;5.53;3.00;;;35.60;30.00;;;;;;925213;152;27425;-75
2023/05/26 10:14:53;;;;;;;4.95;3.27;;;35.20;30.40;;;;;;925343;154;26283;-75
2023/05/26 10:17:19;;;;;;;4.33;3.40;;;34.70;30.50;;;;;;925123;154;27372;-75
2023/05/26 10:19:46;;;;;;;4.15;3.65;;;34.20;30.40;;;;;;926963;152;27358;-75
2023/05/26 10:22:13;;;;;;;4.85;3.00;;;33.80;30.60;;;;;;926874;151;26670;-75
2023/05/26 10:24:39;;;;;;;3.17;2.67;;;33.30;30.80;;;;;;925274;151;27416;-75
2023/05/26 10:27:43;;;;;;;7.20;3.20;;;32.80;31.50;;;;;;926601;152;27419;-75
2023/05/26 10:30:11;;;;;;;4.30;3.15;;;32.40;32.00;;;;;;927409;151;27481;-74
2023/05/26 10:32:54;;;;;;;5.22;3.33;;;31.90;32.20;;;;;;926344;152;27740;-74
2023/05/26 10:35:31;;;;;;;5.33;3.30;;;31.50;32.20;;;;;;927151;152;27503;-74
2023/05/26 10:37:56;;;;;;;4.20;2.72;;;31.10;32.40;;;;;;927234;152;27325;-75
2023/05/26 10:40:44;;;;;;;3.80;2.87;;;30.70;32.60;;;;;;922835;152;27426;-74
2023/05/26 10:43:13;;;;;;;4.00;3.42;;;30.40;32.70;;;;;;926981;152;27371;-74
2023/05/26 10:45:43;;;;;;;3.70;3.00;;;30.10;33.00;;;;;;927093;152;27362;-74
2023/05/26 10:48:10;;;;;;;5.92;3.40;;;29.80;33.60;;;;;;927176;152;27465;-74
2023/05/26 10:51:00;;;;;;;4.92;3.00;;;29.50;33.90;;;;;;927256;152;27459;-75
2023/05/26 10:53:30;;;;;;;5.62;2.83;;;29.30;34.00;;;;;;927037;152;27393;-74
2023/05/26 10:56:02;;;;;;;3.47;2.70;;;29.10;34.20;;;;;;932093;149;27440;-74
2023/05/26 10:58:32;;;;;;;3.72;2.72;;;29.00;34.80;;;;;;926123;152;27379;-74
2023/05/26 11:01:01;;;;;;;5.08;2.98;;;28.90;34.80;;;;;;927122;151;27354;-74
2023/05/26 11:03:37;;;;;;;4.30;2.83;;;28.80;35.00;;;;;;926726;152;27517;-74
2023/05/26 11:06:04;;;;;;;5.65;2.83;;;28.70;35.10;;;;;;925116;152;27390;-75
2023/05/26 11:08:37;;;;;;;5.12;3.05;;;28.60;35.30;;;;;;934141;149;27388;-74
2023/05/26 11:11:03;;;;;;;3.33;2.45;;;28.60;35.70;;;;;;932167;149;27270;-75
2023/05/26 11:13:45;;;;;;;5.72;3.17;;;28.50;35.60;;;;;;933872;149;27429;-75
2023/05/26 11:16:23;;;;;;;4.05;2.50;;;28.40;35.60;;;;;;913547;152;27524;-74
2023/05/26 11:18:53;;;;;;;3.45;2.87;;;28.40;35.60;;;;;;917939;152;27403;-74
2023/05/26 11:21:19;;;;;;;3.98;3.25;;;28.30;35.60;;;;;;911346;152;27373;-74
2023/05/26 11:23:46;;;;;;;3.72;2.98;;;28.30;35.60;;;;;;934816;150;27343;-74
2023/05/26 11:26:12;;;;;;;8.13;3.50;;;28.10;35.80;;;;;;919596;152;27373;-75
2023/05/26 11:28:45;;;;;;;3.20;2.65;;;28.10;36.10;;;;;;918036;152;27422;-74
2023/05/26 11:31:11;;;;;;;3.47;3.02;;;28.00;36.40;;;;;;919216;152;27422;-74
2023/05/26 11:33:38;;;;;;;5.65;2.80;;;27.90;36.30;;;;;;912371;153;27411;-74
2023/05/26 11:36:10;;;;;;;4.20;2.67;;;27.80;36.20;;;;;;911970;153;27477;-74
2023/05/26 11:38:37;;;;;;;3.22;2.60;;;27.70;36.30;;;;;;934370;149;27349;-75
2023/05/26 11:41:06;;;;;;;3.60;2.85;;;27.60;36.30;;;;;;934611;149;27405;-74
2023/05/26 11:43:33;;;;;;;3.52;2.83;;;27.50;36.40;;;;;;934151;149;27373;-74
2023/05/26 11:46:02;;;;;;;3.02;2.72;;;27.30;36.40;;;;;;934478;149;27458;-75
2023/05/26 11:48:39;;;;;;;4.08;2.58;;;27.20;36.60;;;;;;911722;152;27343;-74
2023/05/26 11:51:09;;;;;;;5.90;3.08;;;27.20;37.10;;;;;;912332;153;27506;-74
2023/05/26 11:53:36;;;;;;;6.78;3.17;;;27.10;37.30;;;;;;927216;152;27430;-74
2023/05/26 11:56:02;;;;;;;9.40;2.95;;;27.00;37.30;;;;;;927290;152;27475;-76
2023/05/26 11:58:29;;;;;;;4.80;2.70;;;26.90;37.50;;;;;;927955;152;27463;-76
2023/05/26 12:00:58;;;;;;;2.62;2.40;;;26.80;37.90;;;;;;927036;152;27474;-76
2023/05/26 12:03:25;;;;;;;5.42;2.95;;;26.80;38.20;;;;;;927580;152;27447;-76
2023/05/26 12:05:51;;;;;;;2.92;2.62;;;26.70;38.20;;;;;;927668;150;27422;-76
2023/05/26 12:08:18;;;;;;;6.40;2.85;;;26.70;38.30;;;;;;927579;152;27334;-76
2023/05/26 12:10:45;;;;;;;5.67;3.20;;;26.60;38.30;;;;;;927099;151;27487;-76
2023/05/26 12:13:11;;;;;;;6.28;3.08;;;26.60;38.50;;;;;;927585;152;27371;-76
2023/05/26 12:15:38;;;;;;;4.62;2.52;;;26.60;38.50;;;;;;927708;152;27342;-76
2023/05/26 12:18:04;;;;;;;4.87;2.80;;;26.60;38.60;;;;;;927907;152;27914;-76
2023/05/26 12:20:31;;;;;;;5.25;2.47;;;26.60;38.60;;;;;;927640;152;28036;-76
2023/05/26 12:23:02;;;;;;;3.98;2.47;;;26.50;38.60;;;;;;927198;152;27355;-76
2023/05/26 12:25:27;;;;;;;5.33;2.90;;;26.50;38.70;;;;;;926451;152;27338;-76
2023/05/26 12:27:53;;;;;;;7.97;3.42;;;26.50;38.90;;;;;;912556;152;27384;-76
2023/05/26 12:30:20;;;;;;;4.17;3.25;;;26.50;39.10;;;;;;919254;152;27489;-76
2023/05/26 12:32:48;;;;;;;4.50;2.37;;;26.50;39.20;;;;;;919191;152;27390;-76
2023/05/26 12:35:13;;;;;;;6.37;2.98;;;26.50;39.20;;;;;;911647;152;27308;-76
2023/05/26 12:37:40;;;;;;;4.95;2.60;;;26.50;39.20;;;;;;934891;149;27396;-76
2023/05/26 12:40:06;;;;;;;4.12;2.72;;;26.50;39.20;;;;;;933294;149;27365;-76
2023/05/26 12:42:33;;;;;;;4.90;2.90;;;26.50;39.20;;;;;;932785;149;27336;-76
2023/05/26 12:45:00;;;;;;;4.90;2.67;;;26.50;39.00;;;;;;933557;149;27390;-76
2023/05/26 12:47:26;;;;;;;6.53;2.95;;;26.50;39.30;;;;;;933864;149;27335;-76
2023/05/26 12:49:53;;;;;;;4.78;2.47;;;26.50;39.30;;;;;;933652;149;27361;-76